createdAt,value
2018-01-23T00:01:19.182Z,23.50
2018-01-23T00:03:47.278Z,22.83
2018-01-23T00:06:21.304Z,25.50
2018-01-23T00:08:49.411Z,22.93
2018-01-23T00:11:17.523Z,25.03
2018-01-23T00:13:45.635Z,19.50
2018-01-23T00:16:13.722Z,19.90
2018-01-23T00:18:41.848Z,23.10
2018-01-23T00:21:09.938Z,26.23
2018-01-23T00:23:38.051Z,23.87
2018-01-23T00:26:06.141Z,17.80
2018-01-23T00:28:34.235Z,19.47
2018-01-23T00:31:02.352Z,22.53
2018-01-23T00:33:30.438Z,21.97
2018-01-23T00:35:58.626Z,19.47
2018-01-23T00:38:26.717Z,17.97
2018-01-23T00:40:54.829Z,18.03
2018-01-23T00:43:22.932Z,20.77
2018-01-23T00:45:51.031Z,22.20
2018-01-23T00:48:19.122Z,21.00
2018-01-23T00:50:47.230Z,21.97
2018-01-23T00:53:15.339Z,33.17
2018-01-23T00:55:43.426Z,15.90
2018-01-23T00:58:11.522Z,22.70
2018-01-23T01:00:39.623Z,26.13
2018-01-23T01:03:07.736Z,19.67
2018-01-23T01:05:35.836Z,20.20
2018-01-23T01:08:03.930Z,22.13
2018-01-23T01:10:38.070Z,18.67
2018-01-23T01:13:06.171Z,22.57
2018-01-23T01:15:37.696Z,22.77
2018-01-23T01:18:05.797Z,19.57
2018-01-23T01:20:33.889Z,25.73
2018-01-23T01:23:01.996Z,20.53
2018-01-23T01:25:30.095Z,23.33
2018-01-23T01:27:58.185Z,24.83
2018-01-23T01:30:26.291Z,20.97
2018-01-23T01:32:56.337Z,22.83
2018-01-23T01:35:24.455Z,28.37
2018-01-23T01:37:52.566Z,27.23
2018-01-23T01:40:20.673Z,21.50
2018-01-23T01:42:48.773Z,29.77
2018-01-23T01:45:17.892Z,23.60
2018-01-23T01:47:45.999Z,24.57
2018-01-23T01:50:14.103Z,26.07
2018-01-23T01:52:42.204Z,26.73
2018-01-23T01:55:10.316Z,23.80
2018-01-23T01:57:38.405Z,22.50
2018-01-23T02:00:06.509Z,24.23
2018-01-23T02:02:34.622Z,20.07
2018-01-23T02:05:02.724Z,24.23
2018-01-23T02:07:30.822Z,19.43
2018-01-23T02:09:58.936Z,26.37
2018-01-23T02:12:27.052Z,29.53
2018-01-23T02:14:55.145Z,24.40
2018-01-23T02:17:23.259Z,26.67
2018-01-23T02:19:51.374Z,24.70
2018-01-23T02:22:19.553Z,26.80
2018-01-23T02:25:05.939Z,26.03
2018-01-23T02:27:34.044Z,24.57
2018-01-23T02:30:02.169Z,26.40
2018-01-23T02:32:30.270Z,27.73
2018-01-23T02:34:58.377Z,29.13
2018-01-23T02:37:26.469Z,27.47
2018-01-23T02:39:54.595Z,36.40
2018-01-23T02:42:22.693Z,30.90
2018-01-23T02:44:50.797Z,26.63
2018-01-23T02:47:18.906Z,29.17
2018-01-23T02:49:47.016Z,24.67
2018-01-23T02:52:15.170Z,30.00
2018-01-23T02:54:43.292Z,26.47
2018-01-23T02:57:11.404Z,24.70
2018-01-23T02:59:39.765Z,34.67
2018-01-23T03:02:07.899Z,27.80
2018-01-23T03:04:36.000Z,30.47
2018-01-23T03:07:04.120Z,29.03
2018-01-23T03:09:32.235Z,21.33
2018-01-23T03:12:00.330Z,32.60
2018-01-23T03:14:28.462Z,28.67
2018-01-23T03:16:56.563Z,28.77
2018-01-23T03:19:24.685Z,24.00
2018-01-23T03:21:52.774Z,27.30
2018-01-23T03:24:20.903Z,28.10
2018-01-23T03:26:48.993Z,29.07
2018-01-23T03:29:19.006Z,28.83
2018-01-23T03:31:47.120Z,26.90
2018-01-23T03:34:15.227Z,26.60
2018-01-23T03:36:43.324Z,21.20
2018-01-23T03:39:11.442Z,23.23
2018-01-23T03:41:39.537Z,25.93
2018-01-23T03:44:07.653Z,24.47
2018-01-23T03:46:35.771Z,24.63
2018-01-23T03:49:04.035Z,25.10
2018-01-23T03:51:32.140Z,24.73
2018-01-23T03:54:00.249Z,26.83
2018-01-23T03:56:28.363Z,25.57
2018-01-23T03:58:56.491Z,25.97
2018-01-23T04:01:24.600Z,23.00
2018-01-23T04:03:52.693Z,25.27
2018-01-23T04:06:20.801Z,22.97
2018-01-23T04:08:48.920Z,22.93
2018-01-23T04:11:17.021Z,22.50
2018-01-23T04:13:45.121Z,26.37
2018-01-23T04:16:13.249Z,24.53
2018-01-23T04:18:41.337Z,21.93
2018-01-23T04:21:09.435Z,24.37
2018-01-23T04:23:37.533Z,22.90
2018-01-23T04:26:05.629Z,24.30
2018-01-23T04:28:33.751Z,20.97
2018-01-23T04:31:02.826Z,24.80
2018-01-23T04:33:30.936Z,26.00
2018-01-23T04:35:59.038Z,24.43
2018-01-23T04:38:27.148Z,27.30
2018-01-23T04:40:57.209Z,25.03
2018-01-23T04:43:25.316Z,25.93
2018-01-23T04:45:53.439Z,25.20
2018-01-23T04:48:21.556Z,24.67
2018-01-23T04:50:49.656Z,24.00
2018-01-23T04:53:36.845Z,25.70
2018-01-23T04:56:04.942Z,22.67
2018-01-23T04:58:33.049Z,28.43
2018-01-23T05:01:01.158Z,22.70
2018-01-23T05:03:29.276Z,28.80
2018-01-23T05:05:57.365Z,28.87
2018-01-23T05:08:25.477Z,28.63
2018-01-23T05:10:53.584Z,23.10
2018-01-23T05:13:27.595Z,23.13
2018-01-23T05:15:59.481Z,25.20
2018-01-23T05:18:27.632Z,28.47
2018-01-23T05:20:55.746Z,32.07
2018-01-23T05:23:23.868Z,27.70
2018-01-23T05:25:59.066Z,27.77
2018-01-23T05:28:27.166Z,27.90
2018-01-23T05:30:57.203Z,27.23
2018-01-23T05:33:25.274Z,27.47
2018-01-23T05:35:53.399Z,25.83
2018-01-23T05:38:21.497Z,27.60
2018-01-23T05:40:49.621Z,26.53
2018-01-23T05:43:17.723Z,25.63
2018-01-23T05:45:45.836Z,21.90
2018-01-23T05:48:26.169Z,30.83
2018-01-23T05:50:54.261Z,29.47
2018-01-23T05:53:22.379Z,25.33
2018-01-23T05:55:50.528Z,28.70
2018-01-23T05:58:18.586Z,23.57
2018-01-23T06:00:46.681Z,28.83
2018-01-23T06:03:14.789Z,26.20
2018-01-23T06:05:42.908Z,29.23
2018-01-23T06:08:14.285Z,23.23
2018-01-23T06:10:42.395Z,24.53
2018-01-23T06:13:10.515Z,24.77
2018-01-23T06:15:38.634Z,20.30
2018-01-23T06:18:06.725Z,27.40
2018-01-23T06:20:37.917Z,23.10
2018-01-23T06:23:06.038Z,26.97
2018-01-23T06:25:34.133Z,27.87
2018-01-23T06:28:07.969Z,29.57
2018-01-23T06:30:36.079Z,23.67
2018-01-23T06:33:04.186Z,22.43
2018-01-23T06:35:33.213Z,27.17
2018-01-23T06:38:01.324Z,28.47
2018-01-23T06:40:29.438Z,26.13
2018-01-23T06:43:01.105Z,26.23
2018-01-23T06:45:29.230Z,23.07
2018-01-23T06:47:57.352Z,21.70
2018-01-23T06:50:25.464Z,27.57
2018-01-23T06:52:53.576Z,23.20
2018-01-23T06:55:23.591Z,21.93
2018-01-23T06:57:51.705Z,24.30
2018-01-23T07:00:19.803Z,21.03
2018-01-23T07:02:47.914Z,26.97
2018-01-23T07:05:16.024Z,23.60
2018-01-23T07:07:44.128Z,23.23
2018-01-23T07:10:12.227Z,24.90
2018-01-23T07:12:40.336Z,29.87
2018-01-23T07:15:08.555Z,22.70
2018-01-23T07:17:36.639Z,19.53
2018-01-23T07:20:04.831Z,23.10
2018-01-23T07:22:36.552Z,25.13
2018-01-23T07:25:04.637Z,21.63
2018-01-23T07:27:33.660Z,25.40
2018-01-23T07:30:01.780Z,24.27
2018-01-23T07:32:29.867Z,23.10
2018-01-23T07:34:58.917Z,22.17
2018-01-23T07:37:28.928Z,19.93
2018-01-23T07:39:57.036Z,17.93
2018-01-23T07:42:25.152Z,21.47
2018-01-23T07:44:55.156Z,28.17
2018-01-23T07:47:23.253Z,26.33
2018-01-23T07:49:51.390Z,16.73
2018-01-23T07:52:19.512Z,25.37
2018-01-23T07:54:47.602Z,24.07
2018-01-23T07:57:15.705Z,20.77
2018-01-23T07:59:45.770Z,26.77
2018-01-23T08:02:13.892Z,24.73
2018-01-23T08:04:43.135Z,31.07
2018-01-23T08:07:11.218Z,23.33
2018-01-23T08:09:39.313Z,24.97
2018-01-23T08:12:07.432Z,23.80
2018-01-23T08:14:35.532Z,19.17
2018-01-23T08:17:03.637Z,25.17
2018-01-23T08:19:31.787Z,25.57
2018-01-23T08:22:00.799Z,30.63
2018-01-23T08:24:28.899Z,26.10
2018-01-23T08:26:57.001Z,23.83
2018-01-23T08:29:25.125Z,24.23
2018-01-23T08:31:53.231Z,31.33
2018-01-23T08:34:22.264Z,22.60
2018-01-23T08:36:50.363Z,22.03
2018-01-23T08:39:18.472Z,38.83
2018-01-23T08:41:46.588Z,26.60
2018-01-23T08:44:14.687Z,27.73
2018-01-23T08:46:49.472Z,21.67
2018-01-23T08:49:17.564Z,26.27
2018-01-23T08:51:45.686Z,25.67
2018-01-23T08:54:14.715Z,23.47
2018-01-23T08:56:46.380Z,26.00
2018-01-23T08:59:14.492Z,28.23
2018-01-23T09:01:48.414Z,25.67
2018-01-23T09:04:16.521Z,18.83
2018-01-23T09:06:44.628Z,28.50
2018-01-23T09:09:12.721Z,29.03
2018-01-23T09:11:40.819Z,21.83
2018-01-23T09:14:08.918Z,25.87
2018-01-23T09:16:37.010Z,25.13
2018-01-23T09:19:05.114Z,20.33
2018-01-23T09:21:38.242Z,27.03
2018-01-23T09:24:06.337Z,21.77
2018-01-23T09:26:34.433Z,21.27
2018-01-23T09:29:04.512Z,18.33
2018-01-23T09:31:32.693Z,18.80
2018-01-23T09:34:00.792Z,24.93
2018-01-23T09:36:28.908Z,17.30
2018-01-23T09:39:01.927Z,23.27
2018-01-23T09:41:30.036Z,18.83
2018-01-23T09:43:58.144Z,20.07
2018-01-23T09:46:26.252Z,22.30
2018-01-23T09:48:54.359Z,22.30
2018-01-23T09:51:22.476Z,21.57
2018-01-23T09:53:50.561Z,20.60
2018-01-23T09:56:18.666Z,15.40
2018-01-23T09:58:46.803Z,12.27
2018-01-23T10:01:14.912Z,20.53
2018-01-23T10:03:43.006Z,21.30
2018-01-23T10:06:11.123Z,19.43
2018-01-23T10:08:39.219Z,14.97
2018-01-23T10:11:07.339Z,21.93
2018-01-23T10:13:35.440Z,20.23
2018-01-23T10:16:03.556Z,19.97
2018-01-23T10:18:31.676Z,22.97
2018-01-23T10:21:01.691Z,16.50
2018-01-23T10:23:29.798Z,20.20
2018-01-23T10:25:57.901Z,22.13
2018-01-23T10:28:26.022Z,19.10
2018-01-23T10:30:54.126Z,19.00
2018-01-23T10:33:22.235Z,14.17
2018-01-23T10:35:50.325Z,12.57
2018-01-23T10:38:18.439Z,13.57
2018-01-23T10:40:46.532Z,11.70
2018-01-23T10:43:14.633Z,11.37
2018-01-23T10:45:42.751Z,14.63
2018-01-23T10:48:10.864Z,20.37
2018-01-23T10:50:38.976Z,16.67
2018-01-23T10:53:07.088Z,11.43
2018-01-23T10:55:35.228Z,19.97
2018-01-23T10:58:03.332Z,14.90
2018-01-23T11:00:48.182Z,13.67
2018-01-23T11:03:16.340Z,13.93
2018-01-23T11:05:44.435Z,16.43
2018-01-23T11:08:14.500Z,11.63
2018-01-23T11:10:42.612Z,18.90
2018-01-23T11:13:18.756Z,17.13
2018-01-23T11:15:53.738Z,14.07
2018-01-23T11:18:31.734Z,19.47
2018-01-23T11:21:00.777Z,17.30
2018-01-23T11:23:28.878Z,18.57
2018-01-23T11:25:56.987Z,20.97
2018-01-23T11:28:25.094Z,19.03
2018-01-23T11:30:53.200Z,15.40
2018-01-23T11:33:21.311Z,13.73
2018-01-23T11:35:49.417Z,17.30
2018-01-23T11:38:17.528Z,13.03
2018-01-23T11:40:47.590Z,13.57
2018-01-23T11:43:16.745Z,12.13
2018-01-23T11:45:45.788Z,15.63
2018-01-23T11:48:13.875Z,9.93
2018-01-23T11:50:41.996Z,10.43
2018-01-23T11:53:10.112Z,13.03
2018-01-23T11:55:38.210Z,14.30
2018-01-23T11:58:06.319Z,10.40
2018-01-23T12:00:34.425Z,9.83
2018-01-23T12:03:02.540Z,10.60
2018-01-23T12:05:35.771Z,8.83
2018-01-23T12:08:03.911Z,10.07
2018-01-23T12:10:31.971Z,9.20
2018-01-23T12:13:00.070Z,8.83
2018-01-23T12:15:34.002Z,15.27
2018-01-23T12:18:02.116Z,9.63
2018-01-23T12:20:30.233Z,14.03
2018-01-23T12:23:02.256Z,14.53
2018-01-23T12:25:32.334Z,12.07
2018-01-23T12:28:02.373Z,10.43
2018-01-23T12:30:30.472Z,9.10
2018-01-23T12:33:16.818Z,13.47
2018-01-23T12:35:44.910Z,15.47
2018-01-23T12:38:13.028Z,8.47
2018-01-23T12:40:41.118Z,13.03
2018-01-23T12:43:09.226Z,10.33
2018-01-23T12:45:37.343Z,19.23
2018-01-23T12:48:05.455Z,13.97
2018-01-23T12:50:33.563Z,12.67
2018-01-23T12:53:15.723Z,11.37
2018-01-23T12:55:43.825Z,13.77
2018-01-23T12:58:11.967Z,11.43
2018-01-23T13:00:40.080Z,9.40
2018-01-23T13:03:08.182Z,10.37
2018-01-23T13:05:37.234Z,11.47
2018-01-23T13:08:05.362Z,15.50
2018-01-23T13:10:35.422Z,9.27
2018-01-23T13:13:03.523Z,11.20
2018-01-23T13:15:31.622Z,9.43
2018-01-23T13:17:59.736Z,11.50
2018-01-23T13:20:27.842Z,15.30
2018-01-23T13:22:55.942Z,13.63
2018-01-23T13:25:24.202Z,13.07
2018-01-23T13:27:52.317Z,10.93
2018-01-23T13:30:20.418Z,10.37
2018-01-23T13:32:48.548Z,12.53
2018-01-23T13:35:16.661Z,9.20
2018-01-23T13:37:44.746Z,7.57
2018-01-23T13:40:12.885Z,11.37
2018-01-23T13:42:40.983Z,12.33
2018-01-23T13:45:09.087Z,14.20
2018-01-23T13:47:47.105Z,15.57
2018-01-23T13:50:15.219Z,9.53
2018-01-23T13:52:43.346Z,12.80
2018-01-23T13:55:13.504Z,11.63
2018-01-23T13:57:43.520Z,9.30
2018-01-23T14:00:13.547Z,12.70
2018-01-23T14:02:41.633Z,8.00
2018-01-23T14:05:09.897Z,7.57
2018-01-23T14:07:38.008Z,14.77
2018-01-23T14:10:10.603Z,10.97
2018-01-23T14:12:43.411Z,8.60
2018-01-23T14:15:13.478Z,12.23
2018-01-23T14:17:41.571Z,9.37
2018-01-23T14:20:09.684Z,13.83
2018-01-23T14:22:37.822Z,11.87
2018-01-23T14:25:11.471Z,10.83
2018-01-23T14:27:39.696Z,14.13
2018-01-23T14:30:08.732Z,10.27
2018-01-23T14:32:36.848Z,10.33
2018-01-23T14:35:05.026Z,11.10
2018-01-23T14:37:35.152Z,12.80
2018-01-23T14:40:03.306Z,14.77
2018-01-23T14:42:31.402Z,12.53
2018-01-23T14:44:59.588Z,9.03
2018-01-23T14:47:27.703Z,9.50
2018-01-23T14:49:55.816Z,9.23
2018-01-23T14:52:24.225Z,12.37
2018-01-23T14:54:56.411Z,8.73
2018-01-23T14:57:28.357Z,11.27
2018-01-23T14:59:56.834Z,11.13
2018-01-23T15:02:24.905Z,9.00
2018-01-23T15:04:53.028Z,12.43
2018-01-23T15:07:21.141Z,12.17
2018-01-23T15:09:49.238Z,9.57
2018-01-23T15:12:17.339Z,10.63
2018-01-23T15:14:45.446Z,13.40
2018-01-23T15:17:13.558Z,9.70
2018-01-23T15:19:41.672Z,12.50
2018-01-23T15:22:09.774Z,9.60
2018-01-23T15:24:37.893Z,11.00
2018-01-23T15:27:06.008Z,7.77
2018-01-23T15:29:34.144Z,7.73
2018-01-23T15:32:04.234Z,10.63
2018-01-23T15:34:32.326Z,7.93
2018-01-23T15:37:05.493Z,7.73
2018-01-23T15:39:33.587Z,8.80
2018-01-23T15:42:13.492Z,7.00
2018-01-23T15:44:41.596Z,5.63
2018-01-23T15:47:09.702Z,4.70
2018-01-23T15:49:43.844Z,5.17
2018-01-23T15:52:19.194Z,4.47
2018-01-23T15:54:50.355Z,5.93
2018-01-23T15:57:18.461Z,7.47
2018-01-23T15:59:46.590Z,7.17
2018-01-23T16:02:18.795Z,6.10
2018-01-23T16:04:46.885Z,9.97
2018-01-23T16:07:14.995Z,7.17
2018-01-23T16:09:46.875Z,9.07
2018-01-23T16:12:14.972Z,6.83
2018-01-23T16:14:43.080Z,9.40
2018-01-23T16:17:30.582Z,9.43
2018-01-23T16:19:58.696Z,6.80
2018-01-23T16:22:30.366Z,8.70
2018-01-23T16:24:58.497Z,7.60
2018-01-23T16:27:26.582Z,9.97
2018-01-23T16:29:58.651Z,5.13
2018-01-23T16:32:26.710Z,5.83
2018-01-23T16:35:13.972Z,6.63
2018-01-23T16:37:46.980Z,6.03
2018-01-23T16:40:16.989Z,5.87
2018-01-23T16:42:45.083Z,6.83
2018-01-23T16:45:26.315Z,8.23
2018-01-23T16:47:56.364Z,5.37
2018-01-23T16:50:25.470Z,6.93
2018-01-23T16:52:53.562Z,6.07
2018-01-23T16:55:21.653Z,6.10
2018-01-23T16:57:55.419Z,7.10
2018-01-23T17:00:23.536Z,8.93
2018-01-23T17:02:55.058Z,9.77
2018-01-23T17:05:23.167Z,9.57
2018-01-23T17:07:51.277Z,12.37
2018-01-23T17:10:19.385Z,8.20
2018-01-23T17:12:47.483Z,8.83
2018-01-23T17:15:22.178Z,8.73
2018-01-23T17:17:51.241Z,9.67
2018-01-23T17:20:21.245Z,5.73
2018-01-23T17:22:49.348Z,8.83
2018-01-23T17:25:17.446Z,7.93
2018-01-23T17:30:39.258Z,5.47
2018-01-23T17:33:07.355Z,6.63
2018-01-23T17:35:35.479Z,9.73
2018-01-23T17:38:03.617Z,11.57
2018-01-23T17:40:37.549Z,8.83
2018-01-23T17:43:05.637Z,7.60
2018-01-23T17:45:33.747Z,6.63
2018-01-23T17:48:01.857Z,6.30
2018-01-23T17:50:30.877Z,9.83
2018-01-23T17:52:59.008Z,10.80
2018-01-23T17:55:29.092Z,8.83
2018-01-23T17:57:57.199Z,7.03
2018-01-23T18:00:29.117Z,9.30
2018-01-23T18:02:59.169Z,10.50
2018-01-23T18:05:28.237Z,10.80
2018-01-23T18:07:56.330Z,7.70
2018-01-23T18:10:24.413Z,9.80
2018-01-23T18:12:58.784Z,5.33
2018-01-23T18:15:26.883Z,7.40
2018-01-23T18:17:54.984Z,9.23
2018-01-23T18:20:28.213Z,7.63
2018-01-23T18:22:56.317Z,9.37
2018-01-23T18:25:24.428Z,7.63
2018-01-23T18:27:54.588Z,7.50
2018-01-23T18:30:22.689Z,5.47
2018-01-23T18:33:02.362Z,10.20
2018-01-23T18:35:35.313Z,10.03
2018-01-23T18:38:03.400Z,6.93
2018-01-23T18:40:31.481Z,7.00
2018-01-23T18:43:04.313Z,8.97
2018-01-23T18:45:32.430Z,10.23
2018-01-23T18:48:01.499Z,8.53
2018-01-23T18:50:29.602Z,11.93
2018-01-23T18:52:57.750Z,10.40
2018-01-23T18:55:25.889Z,11.43
2018-01-23T18:57:59.614Z,7.47
2018-01-23T19:00:29.644Z,12.77
2018-01-23T19:02:57.725Z,9.50
2018-01-23T19:05:25.847Z,6.17
2018-01-23T19:07:55.947Z,11.97
2018-01-23T19:10:26.009Z,8.10
2018-01-23T19:12:56.021Z,7.37
2018-01-23T19:15:27.080Z,9.20
2018-01-23T19:17:55.177Z,6.47
2018-01-23T19:20:23.262Z,6.57
2018-01-23T19:22:51.375Z,7.33
2018-01-23T19:25:26.781Z,5.87
2018-01-23T19:28:02.346Z,6.43
2018-01-23T19:30:31.353Z,7.57
2018-01-23T19:32:59.464Z,7.73
2018-01-23T19:35:27.575Z,8.27
2018-01-23T19:37:56.608Z,9.03
2018-01-23T19:40:24.752Z,8.60
2018-01-23T19:42:53.789Z,6.97
2018-01-23T19:45:22.713Z,7.13
2018-01-23T19:47:55.643Z,4.33
2018-01-23T19:50:23.744Z,6.90
2018-01-23T19:52:56.530Z,6.20
2018-01-23T19:55:24.670Z,8.50
2018-01-23T19:57:52.800Z,5.83
2018-01-23T20:00:20.977Z,7.07
2018-01-23T20:02:50.022Z,7.97
2018-01-23T20:05:18.121Z,8.07
2018-01-23T20:07:46.383Z,7.63
2018-01-23T20:10:14.497Z,7.30
2018-01-23T20:12:43.547Z,8.90
2018-01-23T20:15:11.634Z,10.33
2018-01-23T20:17:39.751Z,10.03
2018-01-23T20:20:07.847Z,6.10
2018-01-23T20:22:35.951Z,4.20
2018-01-23T20:25:04.056Z,8.07
2018-01-23T20:27:33.074Z,8.23
2018-01-23T20:30:01.187Z,4.00
2018-01-23T20:32:47.977Z,4.20
2018-01-23T20:35:18.004Z,8.60
2018-01-23T20:37:46.088Z,9.77
2018-01-23T20:40:14.179Z,4.73
2018-01-23T20:45:35.927Z,6.90
2018-01-23T20:48:04.019Z,6.77
2018-01-23T20:50:34.165Z,6.60
2018-01-23T20:53:02.281Z,4.87
2018-01-23T20:55:30.384Z,8.67
2018-01-23T20:57:58.487Z,5.53
2018-01-23T21:00:34.323Z,3.93
2018-01-23T21:03:09.556Z,6.83
2018-01-23T21:05:37.869Z,4.97
2018-01-23T21:08:16.041Z,4.63
2018-01-23T21:11:02.459Z,6.30
2018-01-23T21:13:44.754Z,4.50
2018-01-23T21:16:12.871Z,7.30
2018-01-23T21:18:45.017Z,3.83
2018-01-23T21:21:13.131Z,4.23
2018-01-23T21:23:55.262Z,4.20
2018-01-23T21:26:27.975Z,5.20
2018-01-23T21:29:14.709Z,5.63
2018-01-23T21:31:42.836Z,4.63
2018-01-23T21:34:10.938Z,2.90
2018-01-23T21:36:39.034Z,4.10
2018-01-23T21:39:07.138Z,4.00
2018-01-23T21:44:37.079Z,4.63
2018-01-23T21:47:17.975Z,4.57
2018-01-23T21:49:46.083Z,3.77
2018-01-23T21:52:19.862Z,4.77
2018-01-23T21:54:47.966Z,5.47
2018-01-23T21:57:21.319Z,3.07
2018-01-23T21:59:49.426Z,3.10
2018-01-23T22:02:17.535Z,2.93
2018-01-23T22:04:45.640Z,4.13
2018-01-23T22:07:13.756Z,2.80
2018-01-23T22:09:49.014Z,3.03
2018-01-23T22:12:25.200Z,4.00
2018-01-23T22:14:53.303Z,4.17
2018-01-23T22:17:21.393Z,3.70
2018-01-23T22:19:49.508Z,4.10
2018-01-23T22:22:19.555Z,2.50
2018-01-23T22:24:47.691Z,2.60
2018-01-23T22:27:15.824Z,2.97
2018-01-23T22:29:43.944Z,3.33
2018-01-23T22:32:15.623Z,3.10
2018-01-23T22:34:47.069Z,2.90
2018-01-23T22:37:15.181Z,3.00
2018-01-23T22:39:43.284Z,2.70
2018-01-23T22:42:11.377Z,2.90
2018-01-23T22:44:39.478Z,4.67
2018-01-23T22:47:07.637Z,1.90
2018-01-23T22:49:35.724Z,2.57
2018-01-23T22:52:03.810Z,2.03
2018-01-23T22:54:31.902Z,2.53
2018-01-23T22:57:00.071Z,3.27
2018-01-23T22:59:28.177Z,1.97
2018-01-23T23:01:56.293Z,1.90
2018-01-23T23:04:24.405Z,3.07
2018-01-23T23:07:00.977Z,3.83
2018-01-23T23:09:34.193Z,1.73
2018-01-23T23:12:02.373Z,2.20
2018-01-23T23:14:30.468Z,3.10
2018-01-23T23:16:58.587Z,1.73
2018-01-23T23:19:26.693Z,2.17
2018-01-23T23:21:54.793Z,2.63
2018-01-23T23:24:22.881Z,3.37
2018-01-23T23:26:51.011Z,3.87
2018-01-23T23:29:19.111Z,2.93
2018-01-23T23:31:47.223Z,5.87
2018-01-23T23:37:08.419Z,3.67
2018-01-23T23:39:36.515Z,3.00
2018-01-23T23:42:04.605Z,4.67
2018-01-23T23:44:32.709Z,3.70
2018-01-23T23:47:00.813Z,2.67
2018-01-23T23:49:28.910Z,2.03
2018-01-23T23:51:57.026Z,4.83
2018-01-23T23:54:25.131Z,2.80
2018-01-23T23:56:53.230Z,3.70
2018-01-23T23:59:21.335Z,4.13
